Time;durP1;ratioP1;P1;durP2;ratioP2;P2;SDS_P1;SDS_P2;PMS_P1;PMS_P2;Temp;Humidity;BMP_temperature;BMP_pressure;BME280_temperature;BME280_humidity;BME280_pressure;Samples;Min_cycle;Max_cycle;Signal;HPM_P1;HPM_P2
2023/01/02 05:55:33;;;;;;;5.40;2.40;;;12.30;99.90;;;;;;5774502;24;20049;31
2023/01/02 05:58:01;;;;;;;3.60;2.35;;;12.30;99.90;;;;;;4775100;29;20052;-75
2023/01/02 06:00:27;;;;;;;2.75;1.83;;;12.30;99.90;;;;;;4782180;30;20059;-75
2023/01/02 06:02:53;;;;;;;4.22;2.20;;;12.30;99.90;;;;;;4783372;30;20039;-75
2023/01/02 06:05:18;;;;;;;2.85;2.53;;;12.30;99.90;;;;;;4779253;30;20095;-74
2023/01/02 06:07:44;;;;;;;3.50;2.28;;;12.20;99.90;;;;;;4764781;30;20025;-74
2023/01/02 06:10:10;;;;;;;3.13;1.92;;;12.20;99.90;;;;;;4793545;29;20031;-75
2023/01/02 06:12:36;;;;;;;2.55;2.35;;;12.20;99.90;;;;;;4783864;30;20047;-75
2023/01/02 06:15:02;;;;;;;3.80;2.60;;;12.20;99.90;;;;;;4772330;30;20513;-75
2023/01/02 06:17:28;;;;;;;4.63;1.98;;;12.10;99.90;;;;;;4780964;30;20047;-74
2023/01/02 06:19:54;;;;;;;2.15;1.63;;;12.10;99.90;;;;;;4782106;30;20060;-75
2023/01/02 06:22:19;;;;;;;3.63;1.77;;;12.10;99.90;;;;;;4782109;30;20035;-75
2023/01/02 06:24:45;;;;;;;4.47;2.88;;;12.10;99.90;;;;;;4783710;30;20110;-74
2023/01/02 06:27:11;;;;;;;2.53;2.05;;;12.10;99.90;;;;;;4811980;29;20397;-75
2023/01/02 06:29:37;;;;;;;4.30;1.85;;;12.10;99.90;;;;;;4797216;29;20032;-75
2023/01/02 06:32:04;;;;;;;2.47;1.98;;;12.10;99.90;;;;;;4771554;30;20047;-75
2023/01/02 06:34:29;;;;;;;4.03;1.92;;;12.10;99.90;;;;;;4781662;30;20493;-75
2023/01/02 06:36:55;;;;;;;4.93;1.77;;;12.10;99.90;;;;;;4782162;30;20050;-75
2023/01/02 06:39:21;;;;;;;5.10;2.83;;;12.00;99.90;;;;;;4783273;30;20047;-75
2023/01/02 06:41:47;;;;;;;2.70;1.50;;;12.00;99.90;;;;;;4796758;29;20042;-75
2023/01/02 06:44:13;;;;;;;2.92;2.60;;;12.00;99.90;;;;;;4782240;30;20470;-75
2023/01/02 06:46:39;;;;;;;3.65;1.73;;;12.00;99.90;;;;;;4796968;29;20040;-75
2023/01/02 06:49:05;;;;;;;2.92;2.60;;;12.00;99.90;;;;;;4796991;29;20043;-76
2023/01/02 06:51:31;;;;;;;2.03;1.67;;;12.00;99.90;;;;;;4767199;30;20114;-75
2023/01/02 06:53:56;;;;;;;2.53;2.33;;;12.00;99.90;;;;;;4796880;30;20043;-75
2023/01/02 06:56:22;;;;;;;5.00;2.45;;;12.10;99.90;;;;;;4781343;30;20558;-75
2023/01/02 06:58:48;;;;;;;4.32;1.95;;;12.10;99.90;;;;;;4811670;29;20067;-75
2023/01/02 07:01:19;;;;;;;2.13;1.05;;;12.00;99.90;;;;;;4782945;30;20043;-75
2023/01/02 07:03:45;;;;;;;1.00;0.65;;;11.80;99.90;;;;;;4781812;30;20039;-74
2023/01/02 07:06:14;;;;;;;1.35;0.98;;;11.60;99.90;;;;;;4787999;30;20237;-75
2023/01/02 07:08:42;;;;;;;5.63;0.68;;;11.40;99.90;;;;;;4796371;29;20095;-74
2023/01/02 07:11:18;;;;;;;1.70;1.05;;;11.30;99.90;;;;;;4782572;30;20042;-74
2023/01/02 07:13:46;;;;;;;0.73;0.73;;;11.20;99.90;;;;;;4781254;30;20031;-75
2023/01/02 07:16:14;;;;;;;0.35;0.35;;;11.10;99.90;;;;;;4795738;29;20039;-75
2023/01/02 07:18:40;;;;;;;2.80;1.13;;;11.00;99.90;;;;;;4780844;30;20073;-75
2023/01/02 07:21:07;;;;;;;0.82;0.80;;;10.90;99.90;;;;;;4781194;30;20039;-75
2023/01/02 07:23:34;;;;;;;0.80;0.80;;;10.90;99.90;;;;;;4789199;30;20047;-75
2023/01/02 07:26:01;;;;;;;1.67;1.13;;;10.80;99.90;;;;;;4766162;30;20024;-74
2023/01/02 07:28:28;;;;;;;0.98;0.90;;;10.80;99.90;;;;;;4782932;30;20039;-74
2023/01/02 07:30:59;;;;;;;1.13;1.13;;;10.70;99.90;;;;;;4791180;30;20051;-74
2023/01/02 07:33:27;;;;;;;1.35;1.25;;;10.70;99.90;;;;;;4796217;30;20044;-75
2023/01/02 07:36:01;;;;;;;2.47;2.05;;;10.60;99.90;;;;;;4795955;30;20032;-74
2023/01/02 07:38:28;;;;;;;2.78;2.25;;;10.60;99.90;;;;;;4811003;29;20092;-75
2023/01/02 07:40:54;;;;;;;2.65;2.45;;;10.60;99.90;;;;;;4795641;30;20043;-74
2023/01/02 07:43:20;;;;;;;4.50;3.35;;;10.60;99.90;;;;;;4781028;30;20036;-75
2023/01/02 07:45:46;;;;;;;5.28;2.78;;;10.50;99.90;;;;;;4795945;30;20056;-75
2023/01/02 07:48:12;;;;;;;3.53;3.33;;;10.60;99.90;;;;;;4795872;30;20031;-75
2023/01/02 07:50:38;;;;;;;3.42;3.20;;;10.60;99.90;;;;;;4782439;30;20046;-74
2023/01/02 07:53:04;;;;;;;3.75;3.45;;;10.50;99.90;;;;;;4810116;29;20080;-75
2023/01/02 07:55:30;;;;;;;3.70;3.40;;;10.50;99.90;;;;;;4780843;30;20091;-75
2023/01/02 07:57:55;;;;;;;2.30;2.20;;;10.50;99.90;;;;;;4780674;30;20494;-75
2023/01/02 08:00:21;;;;;;;2.88;2.67;;;10.50;99.90;;;;;;4781861;30;20119;-75
2023/01/02 08:02:48;;;;;;;2.97;2.78;;;10.50;99.90;;;;;;4780145;30;20039;-75
2023/01/02 08:05:18;;;;;;;2.47;2.28;;;10.40;99.90;;;;;;4766566;30;20039;-75
2023/01/02 08:07:44;;;;;;;3.22;1.80;;;10.40;99.90;;;;;;4777198;30;20032;-75
2023/01/02 08:10:11;;;;;;;2.35;2.10;;;10.40;99.90;;;;;;4781602;30;20040;-75
2023/01/02 08:12:37;;;;;;;3.42;3.13;;;10.40;99.90;;;;;;4781973;30;20057;-76
2023/01/02 08:15:03;;;;;;;2.72;2.42;;;10.40;99.90;;;;;;4780572;30;20058;-75
2023/01/02 08:17:30;;;;;;;4.32;3.40;;;10.40;99.90;;;;;;4781828;30;20073;-75
2023/01/02 08:19:56;;;;;;;2.60;2.40;;;10.40;99.90;;;;;;4780467;30;20055;-75
2023/01/02 08:22:22;;;;;;;5.43;3.38;;;10.40;99.90;;;;;;4789209;30;20040;-75
2023/01/02 08:24:48;;;;;;;3.72;3.22;;;10.40;99.90;;;;;;4765942;30;20127;-75
2023/01/02 08:27:14;;;;;;;12.73;4.57;;;10.50;99.90;;;;;;4791191;30;20032;-75
2023/01/02 08:29:40;;;;;;;3.25;3.05;;;10.40;99.90;;;;;;4780474;30;20339;-75
2023/01/02 08:32:07;;;;;;;4.95;4.50;;;10.40;99.90;;;;;;4780428;30;20055;-75
2023/01/02 08:34:35;;;;;;;4.55;4.25;;;10.50;99.90;;;;;;4795203;30;20031;-75
2023/01/02 08:37:01;;;;;;;4.43;4.10;;;10.40;99.90;;;;;;4780368;30;20554;-76
2023/01/02 08:39:29;;;;;;;4.50;4.20;;;10.40;99.90;;;;;;4795217;30;20062;-75
2023/01/02 08:41:56;;;;;;;5.50;4.95;;;10.40;99.90;;;;;;4794978;30;20035;-76
2023/01/02 08:44:22;;;;;;;4.32;3.97;;;10.40;99.90;;;;;;4781540;30;20042;-75
2023/01/02 08:46:48;;;;;;;5.07;4.68;;;10.50;99.90;;;;;;4795294;30;20099;-75
2023/01/02 08:49:14;;;;;;;6.55;5.35;;;10.40;99.90;;;;;;4795719;30;20058;-75
2023/01/02 08:51:40;;;;;;;6.70;5.25;;;10.50;99.90;;;;;;4781541;30;20146;-75
2023/01/02 08:54:05;;;;;;;8.75;6.47;;;10.50;99.90;;;;;;4781512;30;20027;-75
2023/01/02 08:56:32;;;;;;;5.15;4.57;;;10.50;99.90;;;;;;4781524;30;20051;-75
2023/01/02 08:59:02;;;;;;;4.40;4.03;;;10.60;99.90;;;;;;4780483;30;20072;-75
2023/01/02 09:01:30;;;;;;;5.65;4.88;;;10.60;99.90;;;;;;4765678;30;20066;-75
2023/01/02 09:03:56;;;;;;;5.50;5.10;;;10.50;99.90;;;;;;4765720;30;20069;-75
2023/01/02 09:06:24;;;;;;;5.05;4.03;;;10.60;99.90;;;;;;4781769;30;20039;-75
2023/01/02 09:08:51;;;;;;;5.00;4.47;;;10.60;99.90;;;;;;4783627;30;20098;-75
2023/01/02 09:11:21;;;;;;;3.92;3.47;;;10.60;99.90;;;;;;4784814;30;20040;-75
2023/01/02 09:13:46;;;;;;;6.22;3.88;;;10.70;99.90;;;;;;4768893;30;20024;-75
2023/01/02 09:16:12;;;;;;;5.18;4.25;;;10.70;99.90;;;;;;4784391;30;20107;-75
2023/01/02 09:18:39;;;;;;;5.13;4.10;;;10.80;99.90;;;;;;4785017;30;20494;-75
2023/01/02 09:21:05;;;;;;;3.95;3.65;;;10.80;99.90;;;;;;4784647;30;20035;-74
2023/01/02 09:23:32;;;;;;;4.60;3.75;;;10.80;99.90;;;;;;4784247;30;20101;-75
2023/01/02 09:26:03;;;;;;;5.57;3.63;;;10.90;99.90;;;;;;4784861;30;20035;-75
2023/01/02 09:28:32;;;;;;;4.32;3.88;;;10.90;99.90;;;;;;4809208;29;20039;-75
2023/01/02 09:30:58;;;;;;;3.63;3.33;;;10.90;99.90;;;;;;4802597;30;20105;-75
2023/01/02 09:33:24;;;;;;;5.60;4.63;;;10.80;99.90;;;;;;4814506;29;20028;-74
2023/01/02 09:35:50;;;;;;;5.20;4.72;;;10.80;99.90;;;;;;4801898;30;20043;-75
2023/01/02 09:38:16;;;;;;;3.92;3.33;;;10.70;99.90;;;;;;4784166;30;20095;-75
2023/01/02 09:40:52;;;;;;;7.35;6.03;;;10.70;99.90;;;;;;4775531;30;20035;-75
2023/01/02 09:43:54;;;;;;;5.20;4.68;;;10.70;99.90;;;;;;4789446;30;20042;-75
2023/01/02 09:46:29;;;;;;;5.25;4.47;;;10.70;99.90;;;;;;4791921;30;20067;-75
2023/01/02 09:48:55;;;;;;;5.40;4.90;;;10.70;99.90;;;;;;4802354;30;20035;-75
2023/01/02 09:51:21;;;;;;;6.47;4.45;;;10.80;99.90;;;;;;4798255;29;20505;-75
2023/01/02 09:53:47;;;;;;;5.38;4.60;;;10.90;99.90;;;;;;4797940;30;20052;-74
2023/01/02 09:56:17;;;;;;;4.97;4.40;;;11.00;99.90;;;;;;4784070;30;20065;-75
2023/01/02 09:58:47;;;;;;;6.40;5.63;;;11.20;99.90;;;;;;4768184;30;20042;-74
2023/01/02 10:01:38;;;;;;;6.47;5.18;;;11.50;99.90;;;;;;4783481;30;20390;-75
2023/01/02 10:04:17;;;;;;;14.85;9.68;;;12.10;99.90;;;;;;4781122;30;20031;-75
2023/01/02 10:07:06;;;;;;;10.20;7.43;;;12.30;99.90;;;;;;4789790;30;20042;-75
2023/01/02 10:10:01;;;;;;;21.35;12.88;;;12.40;99.90;;;;;;4768254;30;20040;-75
2023/01/02 10:12:45;;;;;;;7.60;6.65;;;12.30;99.90;;;;;;4781094;30;20039;-74
2023/01/02 10:15:18;;;;;;;7.47;6.63;;;12.20;99.90;;;;;;4775584;30;20583;-75
2023/01/02 10:17:49;;;;;;;7.50;6.55;;;11.90;99.90;;;;;;4783444;30;20036;-74
2023/01/02 10:20:29;;;;;;;9.68;8.68;;;11.70;99.90;;;;;;4781869;30;20051;-75
2023/01/02 10:23:08;;;;;;;14.07;10.93;;;11.40;99.90;;;;;;4782875;30;20211;-74
2023/01/02 10:25:44;;;;;;;8.75;7.43;;;11.20;99.90;;;;;;4782377;30;20043;-75
2023/01/02 10:28:56;;;;;;;11.38;9.18;;;11.10;99.90;;;;;;4797155;30;20036;-74
2023/01/02 10:31:30;;;;;;;11.32;8.93;;;11.10;99.90;;;;;;4767402;30;20099;-75
2023/01/02 10:34:05;;;;;;;6.90;5.43;;;11.10;99.90;;;;;;4788910;30;20119;-75
2023/01/02 10:36:34;;;;;;;10.38;5.93;;;11.10;99.90;;;;;;4783146;30;20036;-74
2023/01/02 10:39:05;;;;;;;6.55;5.88;;;11.20;99.90;;;;;;4766319;30;20055;-74
2023/01/02 10:41:31;;;;;;;8.60;6.78;;;11.30;99.90;;;;;;4793211;30;20047;-74
2023/01/02 10:44:01;;;;;;;9.88;8.35;;;11.40;99.90;;;;;;4783408;30;20067;-75
2023/01/02 10:46:32;;;;;;;7.95;7.15;;;11.50;99.90;;;;;;4782906;30;20036;-74
2023/01/02 10:48:58;;;;;;;7.97;7.28;;;11.50;99.90;;;;;;4782686;30;20035;-75
2023/01/02 10:51:24;;;;;;;8.77;7.88;;;11.50;99.90;;;;;;4783318;30;20072;-74
2023/01/02 10:54:01;;;;;;;8.45;6.60;;;11.50;99.90;;;;;;4804664;29;20036;-75
2023/01/02 10:56:31;;;;;;;18.67;16.10;;;11.50;99.90;;;;;;4770127;30;20063;-75
2023/01/02 10:58:57;;;;;;;13.80;10.75;;;11.60;99.90;;;;;;4782887;30;20101;-75
2023/01/02 11:01:23;;;;;;;8.13;7.20;;;11.70;99.90;;;;;;4782811;30;20072;-75
2023/01/02 11:03:56;;;;;;;10.73;9.30;;;11.70;99.90;;;;;;4782283;30;20127;-75
2023/01/02 11:06:29;;;;;;;8.88;7.07;;;11.80;99.90;;;;;;4775892;30;20032;-75
2023/01/02 11:09:03;;;;;;;7.60;6.90;;;11.90;99.90;;;;;;4770916;30;20037;-74
2023/01/02 11:11:31;;;;;;;5.85;5.30;;;12.10;99.90;;;;;;4790037;29;20440;-75
2023/01/02 11:14:07;;;;;;;6.18;5.57;;;12.40;99.90;;;;;;4796555;29;20023;-74
2023/01/02 11:16:38;;;;;;;5.38;3.33;;;12.60;99.90;;;;;;4782531;30;20040;-74
2023/01/02 11:19:06;;;;;;;4.43;3.60;;;12.40;99.90;;;;;;4780717;30;20103;-74
2023/01/02 11:21:38;;;;;;;5.05;4.38;;;12.30;99.90;;;;;;4782559;30;20414;-75
2023/01/02 11:24:14;;;;;;;3.97;3.55;;;12.00;99.90;;;;;;4782450;30;20032;-74
2023/01/02 11:26:42;;;;;;;3.05;2.83;;;11.90;99.90;;;;;;4766026;30;20095;-74
2023/01/02 11:29:29;;;;;;;4.15;3.28;;;11.80;99.90;;;;;;4780672;30;20031;-74
2023/01/02 11:31:57;;;;;;;4.97;3.47;;;11.70;99.90;;;;;;4780702;30;20031;-74
2023/01/02 11:34:50;;;;;;;4.13;3.72;;;11.70;99.90;;;;;;4782216;30;20035;-75
2023/01/02 11:37:20;;;;;;;4.25;3.85;;;11.80;99.90;;;;;;4796162;30;20032;-76
2023/01/02 11:40:06;;;;;;;4.15;3.63;;;12.00;99.90;;;;;;4785381;30;20111;-76
2023/01/02 11:45:29;;;;;;;3.22;2.92;;;12.20;99.90;;;;;;4782367;30;20036;-76
2023/01/02 11:48:01;;;;;;;4.15;3.65;;;12.10;99.90;;;;;;4782160;30;20027;-76
2023/01/02 11:50:30;;;;;;;2.45;2.25;;;12.10;99.90;;;;;;4766107;30;20457;-76
2023/01/02 11:53:05;;;;;;;4.70;4.35;;;12.00;99.90;;;;;;4782417;30;20035;-76
2023/01/02 11:55:49;;;;;;;7.63;3.97;;;11.80;99.90;;;;;;4787767;30;20046;-76
2023/01/02 11:58:23;;;;;;;2.97;2.75;;;11.70;99.90;;;;;;4800586;30;20043;-76
2023/01/02 12:00:55;;;;;;;5.40;3.65;;;11.70;99.90;;;;;;4789869;30;20035;-76
2023/01/02 12:03:23;;;;;;;8.35;4.78;;;11.70;99.90;;;;;;4782057;30;20046;-75
2023/01/02 12:06:29;;;;;;;4.97;4.07;;;11.60;99.90;;;;;;4780974;30;20032;-76
2023/01/02 12:09:22;;;;;;;3.67;3.28;;;11.40;99.90;;;;;;4795864;30;20043;-76
2023/01/02 12:12:20;;;;;;;4.30;3.75;;;11.30;99.90;;;;;;4781703;30;20035;-76
2023/01/02 12:15:07;;;;;;;4.82;3.40;;;11.30;99.90;;;;;;4781931;30;20047;-76
2023/01/02 12:17:59;;;;;;;4.38;3.97;;;11.30;99.90;;;;;;4782408;30;20456;-76
2023/01/02 12:20:39;;;;;;;4.15;3.85;;;11.40;99.90;;;;;;4782214;30;20031;-76
2023/01/02 12:23:21;;;;;;;5.70;3.35;;;11.40;99.90;;;;;;4781775;30;20044;-76
2023/01/02 12:26:10;;;;;;;8.00;4.57;;;11.30;99.90;;;;;;4766130;30;20131;-76
2023/01/02 12:28:42;;;;;;;3.70;3.35;;;11.30;99.90;;;;;;4782243;30;20032;-76
2023/01/02 12:31:39;;;;;;;4.35;3.90;;;11.20;99.90;;;;;;4780880;30;20043;-76
2023/01/02 12:34:26;;;;;;;7.05;5.30;;;11.20;99.90;;;;;;4780598;30;20036;-76
2023/01/02 12:36:57;;;;;;;6.10;4.07;;;11.20;99.90;;;;;;4781655;30;20052;-75
2023/01/02 12:39:50;;;;;;;13.75;6.90;;;11.20;99.90;;;;;;4795750;30;20542;-76
2023/01/02 12:42:27;;;;;;;5.47;3.72;;;11.20;99.90;;;;;;4781800;30;20036;-76
2023/01/02 12:44:55;;;;;;;13.82;8.75;;;11.10;99.90;;;;;;4785588;30;20032;-76
2023/01/02 12:47:35;;;;;;;13.93;12.05;;;11.10;99.90;;;;;;4787018;30;20066;-76
2023/01/02 12:50:23;;;;;;;14.63;9.88;;;11.00;99.90;;;;;;4817075;29;20089;-75
2023/01/02 12:53:19;;;;;;;6.45;5.85;;;10.90;99.90;;;;;;4795837;30;20099;-76
2023/01/02 12:55:52;;;;;;;8.10;5.57;;;10.80;99.90;;;;;;4783336;30;20040;-76
2023/01/02 12:58:27;;;;;;;15.43;13.18;;;10.80;99.90;;;;;;4785269;30;20039;-76
2023/01/02 13:01:10;;;;;;;24.48;16.00;;;10.70;99.90;;;;;;4769234;30;20075;-76
2023/01/02 13:03:46;;;;;;;12.88;10.02;;;10.70;99.90;;;;;;4784808;30;20035;-76
2023/01/02 13:06:27;;;;;;;15.60;11.50;;;10.70;99.90;;;;;;4786455;30;20035;-76
2023/01/02 13:09:09;;;;;;;5.05;4.50;;;10.60;99.90;;;;;;4802996;30;20035;-76
2023/01/02 13:11:47;;;;;;;15.27;13.63;;;10.60;99.90;;;;;;4787101;30;20031;-76
2023/01/02 13:14:28;;;;;;;7.28;6.40;;;10.60;99.90;;;;;;4785815;30;20027;-76
2023/01/02 13:17:27;;;;;;;55.33;42.90;;;10.60;99.90;;;;;;4796672;30;20039;-76
2023/01/02 13:20:10;;;;;;;6.05;4.85;;;10.70;99.90;;;;;;4801401;30;20031;-76
2023/01/02 13:23:07;;;;;;;5.80;5.20;;;10.80;99.90;;;;;;4786563;30;20054;-75
2023/01/02 13:25:38;;;;;;;9.27;5.63;;;10.80;99.90;;;;;;4786504;30;20041;-75
2023/01/02 13:28:06;;;;;;;3.70;3.50;;;10.70;99.90;;;;;;4802869;30;20035;-74
2023/01/02 13:30:32;;;;;;;7.53;3.13;;;10.70;99.90;;;;;;4786337;30;20036;-75
2023/01/02 13:32:59;;;;;;;3.45;3.15;;;10.70;99.90;;;;;;4802547;30;20046;-75
2023/01/02 13:35:25;;;;;;;3.50;3.25;;;10.70;99.90;;;;;;4786357;30;20035;-74
2023/01/02 13:37:54;;;;;;;3.38;3.10;;;10.70;99.90;;;;;;4802515;30;20046;-74
2023/01/02 13:40:25;;;;;;;3.08;2.88;;;10.70;99.90;;;;;;4801105;30;20066;-75
2023/01/02 13:42:57;;;;;;;4.13;3.35;;;10.70;99.90;;;;;;4802379;30;20059;-75
2023/01/02 13:45:30;;;;;;;3.47;3.17;;;10.80;99.90;;;;;;4802581;30;20035;-74
2023/01/02 13:47:59;;;;;;;6.68;3.33;;;10.70;99.90;;;;;;4786207;30;20095;-74
2023/01/02 13:50:45;;;;;;;8.98;3.90;;;10.70;99.90;;;;;;4802108;30;20095;-74
2023/01/02 13:53:11;;;;;;;4.53;3.92;;;10.70;99.90;;;;;;4801900;29;20046;-75
2023/01/02 13:55:39;;;;;;;19.13;3.75;;;10.70;99.90;;;;;;4795716;30;20103;-75
2023/01/02 13:58:20;;;;;;;7.93;5.13;;;10.60;99.90;;;;;;4785334;30;20056;-75
2023/01/02 14:00:48;;;;;;;5.18;3.78;;;10.60;99.90;;;;;;4782839;30;20762;-74
2023/01/02 14:03:20;;;;;;;3.78;3.47;;;10.60;99.90;;;;;;4783948;30;20042;-74
2023/01/02 14:05:55;;;;;;;4.72;3.90;;;10.60;99.90;;;;;;4784223;30;20031;-74
2023/01/02 14:09:08;;;;;;;4.10;3.80;;;10.50;99.90;;;;;;4767906;30;20047;-74
2023/01/02 14:11:57;;;;;;;4.22;3.22;;;10.50;99.90;;;;;;4763291;30;20047;-74
2023/01/02 14:14:35;;;;;;;3.38;2.88;;;10.50;99.90;;;;;;4784081;30;20093;-74
2023/01/02 14:17:15;;;;;;;5.75;4.53;;;10.50;99.90;;;;;;4783873;30;20039;-74
2023/01/02 14:19:42;;;;;;;;;;;10.50;99.90;;;;;;4782764;30;20039;-74
2023/01/02 14:22:18;;;;;;;3.75;2.45;;;10.60;99.90;;;;;;4783989;30;19922;-75
2023/01/02 14:24:50;;;;;;;5.15;3.53;;;10.60;99.90;;;;;;4783753;30;20062;-74
2023/01/02 14:27:22;;;;;;;13.38;8.25;;;10.60;99.90;;;;;;4783896;30;20089;-75
2023/01/02 14:30:11;;;;;;;24.23;16.23;;;10.60;99.90;;;;;;4767488;30;20039;-74
2023/01/02 14:32:43;;;;;;;4.53;3.28;;;10.60;99.90;;;;;;4783750;30;20032;-74
2023/01/02 14:35:12;;;;;;;5.85;3.28;;;10.50;99.90;;;;;;4767878;30;20455;-75
2023/01/02 14:37:46;;;;;;;2.95;2.60;;;10.50;99.90;;;;;;4783798;30;20035;-74
2023/01/02 14:40:17;;;;;;;5.05;2.95;;;10.40;99.90;;;;;;4783603;30;20043;-74
2023/01/02 14:45:46;;;;;;;12.15;8.13;;;10.40;99.90;;;;;;4746944;30;20046;-75
2023/01/02 14:48:17;;;;;;;14.05;5.57;;;10.40;99.90;;;;;;4797154;30;20028;-74
2023/01/02 14:50:44;;;;;;;24.63;14.95;;;10.40;99.90;;;;;;4797292;30;20103;-74
2023/01/02 14:53:25;;;;;;;28.35;13.32;;;10.40;99.90;;;;;;4783034;30;20039;-75
2023/01/02 14:55:56;;;;;;;22.17;16.13;;;10.40;99.90;;;;;;4796726;30;20494;-74
2023/01/02 14:58:34;;;;;;;10.25;7.88;;;10.30;99.90;;;;;;4783244;30;20032;-75
2023/01/02 15:01:01;;;;;;;12.57;8.45;;;10.30;99.90;;;;;;4783107;30;20039;-75
2023/01/02 15:03:44;;;;;;;15.98;12.57;;;10.30;99.90;;;;;;4767207;30;20046;-74
2023/01/02 15:06:18;;;;;;;4.75;3.90;;;10.20;99.90;;;;;;4793708;30;20443;-75
2023/01/02 15:08:49;;;;;;;6.85;4.05;;;10.20;99.90;;;;;;4800867;30;20027;-75
2023/01/02 15:14:16;;;;;;;3.83;3.53;;;10.00;99.90;;;;;;4800816;30;20035;-74
2023/01/02 15:16:50;;;;;;;5.45;5.05;;;9.90;99.90;;;;;;4800777;30;20520;-75
2023/01/02 15:19:26;;;;;;;3.95;3.45;;;9.80;99.90;;;;;;4800812;30;20035;-75
2023/01/02 15:21:53;;;;;;;4.78;4.38;;;9.60;99.90;;;;;;4799858;30;20043;-74
2023/01/02 15:24:25;;;;;;;6.32;5.82;;;9.40;99.90;;;;;;4767661;30;20142;-75
2023/01/02 15:26:52;;;;;;;2.20;1.25;;;9.30;99.90;;;;;;4766638;30;20123;-75
2023/01/02 15:29:26;;;;;;;1.17;1.08;;;9.30;99.90;;;;;;4782690;30;20077;-74
2023/01/02 15:31:56;;;;;;;0.95;0.90;;;9.20;99.90;;;;;;4782884;30;20034;-74
2023/01/02 15:34:31;;;;;;;1.00;0.90;;;9.10;99.90;;;;;;4781421;30;20043;-74
2023/01/02 15:37:01;;;;;;;0.90;0.60;;;9.10;99.90;;;;;;4781433;30;20086;-74
2023/01/02 15:39:35;;;;;;;;;;;9.10;99.90;;;;;;4782768;30;20043;-74
2023/01/02 15:42:02;;;;;;;1.02;0.95;;;9.10;99.90;;;;;;4765745;30;19914;-76
2023/01/02 15:47:20;;;;;;;0.80;0.80;;;9.00;99.90;;;;;;4782416;30;20040;-76
2023/01/02 15:49:47;;;;;;;1.08;1.00;;;9.00;99.90;;;;;;4765516;30;20028;-76
2023/01/02 15:52:17;;;;;;;0.98;0.88;;;8.90;99.90;;;;;;4782184;30;20055;-76
2023/01/02 15:54:43;;;;;;;1.45;1.35;;;9.00;99.90;;;;;;4782450;30;20036;-76
2023/01/02 15:57:14;;;;;;;1.73;1.60;;;8.90;99.90;;;;;;4794011;30;20056;-76
2023/01/02 15:59:40;;;;;;;2.15;1.33;;;8.80;99.90;;;;;;4790238;30;20039;-76
2023/01/02 16:02:30;;;;;;;2.53;1.90;;;8.80;99.90;;;;;;4778400;30;20087;-76
2023/01/02 16:05:17;;;;;;;2.65;2.40;;;8.80;99.90;;;;;;4751277;30;20044;-75
2023/01/02 16:07:55;;;;;;;3.60;3.25;;;8.80;99.90;;;;;;4775499;30;20394;-74
2023/01/02 16:10:27;;;;;;;3.10;2.90;;;8.70;99.90;;;;;;4778623;30;20036;-75
2023/01/02 16:12:59;;;;;;;2.30;2.10;;;8.70;99.90;;;;;;4771891;30;20071;-75
2023/01/02 16:15:29;;;;;;;7.90;3.22;;;8.60;99.90;;;;;;4781563;30;20051;-75
2023/01/02 16:17:56;;;;;;;3.72;3.42;;;8.60;99.90;;;;;;4785209;30;20035;-76
2023/01/02 16:20:24;;;;;;;2.83;2.55;;;8.50;99.90;;;;;;4796019;30;20067;-74
2023/01/02 16:22:55;;;;;;;1.65;1.52;;;8.50;99.90;;;;;;4785310;30;20111;-74
2023/01/02 16:25:27;;;;;;;2.53;2.33;;;8.50;99.90;;;;;;4785330;30;20042;-74
2023/01/02 16:27:55;;;;;;;2.75;2.55;;;8.50;99.90;;;;;;4790865;29;20023;-75
2023/01/02 16:30:29;;;;;;;2.90;2.70;;;8.60;99.90;;;;;;4784146;30;20057;-75
2023/01/02 16:32:56;;;;;;;4.35;2.92;;;8.60;99.90;;;;;;4783460;30;20042;-75
2023/01/02 16:35:24;;;;;;;5.38;2.40;;;8.60;99.90;;;;;;4788269;30;20040;-75
2023/01/02 16:38:17;;;;;;;6.80;3.92;;;8.60;99.90;;;;;;4783498;30;20103;-75
2023/01/02 16:40:48;;;;;;;2.58;2.38;;;8.60;99.90;;;;;;4779506;30;20070;-74
2023/01/02 16:43:15;;;;;;;6.85;2.88;;;8.50;99.90;;;;;;4798821;30;20553;-75
2023/01/02 16:45:41;;;;;;;8.93;5.78;;;8.40;99.90;;;;;;4798608;30;20453;-74
2023/01/02 16:48:14;;;;;;;4.43;2.97;;;8.30;99.90;;;;;;4782939;30;20124;-75
2023/01/02 16:50:43;;;;;;;3.28;2.97;;;8.20;99.90;;;;;;4784945;30;20062;-75
2023/01/02 16:53:18;;;;;;;2.58;2.42;;;8.10;99.90;;;;;;4784573;30;20105;-75
2023/01/02 16:55:44;;;;;;;2.72;2.53;;;7.90;99.90;;;;;;4784708;30;20512;-75
2023/01/02 16:58:10;;;;;;;3.63;3.25;;;8.00;99.90;;;;;;4784599;30;20063;-76
2023/01/02 17:00:36;;;;;;;3.25;2.63;;;8.00;99.90;;;;;;4783439;30;20051;-75
2023/01/02 17:03:02;;;;;;;2.50;2.03;;;7.90;99.90;;;;;;4783517;30;20032;-75
2023/01/02 17:05:52;;;;;;;2.70;2.50;;;7.90;99.90;;;;;;4784574;30;20043;-75
2023/01/02 17:11:21;;;;;;;7.53;4.00;;;7.90;99.90;;;;;;4815393;29;20138;-79
2023/01/02 17:13:48;;;;;;;3.72;3.42;;;7.90;99.90;;;;;;4801534;30;20039;-76
2023/01/02 17:16:15;;;;;;;9.25;4.75;;;7.90;99.90;;;;;;4787430;29;20043;-79
2023/01/02 17:18:42;;;;;;;9.82;4.13;;;8.00;99.90;;;;;;4804774;29;20045;-79
2023/01/02 17:21:09;;;;;;;4.30;3.90;;;8.00;99.90;;;;;;4804764;29;20043;-77
2023/01/02 17:23:35;;;;;;;9.18;6.03;;;8.00;99.90;;;;;;4789415;29;20046;-76
2023/01/02 17:26:02;;;;;;;5.47;4.93;;;8.00;99.90;;;;;;4795518;29;20493;-76
2023/01/02 17:28:32;;;;;;;5.18;4.60;;;8.00;99.90;;;;;;4820074;29;20133;-77
2023/01/02 17:30:58;;;;;;;3.85;3.28;;;8.00;99.90;;;;;;4819276;29;20484;-77
2023/01/02 17:33:23;;;;;;;5.18;4.68;;;8.00;99.90;;;;;;4802980;29;20474;-76
2023/01/02 17:35:50;;;;;;;15.10;11.63;;;7.90;99.90;;;;;;4807206;29;20137;-76
2023/01/02 17:38:16;;;;;;;5.70;5.10;;;7.90;99.90;;;;;;4821883;29;20109;-77
2023/01/02 17:40:43;;;;;;;5.13;4.50;;;7.80;99.90;;;;;;4806218;29;20041;-77
2023/01/02 17:43:08;;;;;;;5.60;5.20;;;7.80;99.90;;;;;;4812940;29;20062;-79
2023/01/02 17:45:35;;;;;;;5.53;4.78;;;7.90;99.90;;;;;;4814650;29;20056;-78
2023/01/02 17:48:01;;;;;;;5.22;4.22;;;7.90;99.90;;;;;;4779270;29;20035;-77
2023/01/02 17:50:27;;;;;;;4.93;4.38;;;8.00;99.90;;;;;;4803504;29;20035;-78
2023/01/02 17:52:53;;;;;;;4.85;4.00;;;8.10;99.90;;;;;;4809092;29;20042;-79
2023/01/02 17:55:19;;;;;;;4.18;3.75;;;8.20;99.90;;;;;;4820264;29;20035;-78
2023/01/02 17:57:45;;;;;;;6.93;5.68;;;8.30;99.90;;;;;;4788743;29;20043;-78
2023/01/02 18:00:13;;;;;;;9.35;4.53;;;8.30;99.90;;;;;;4788141;29;20488;-77
2023/01/02 18:02:40;;;;;;;4.30;4.00;;;8.30;99.90;;;;;;4819198;29;20059;-78
2023/01/02 18:05:06;;;;;;;8.30;4.45;;;8.40;99.90;;;;;;4803819;29;20102;-77
2023/01/02 18:07:32;;;;;;;5.63;3.28;;;8.40;99.90;;;;;;4803876;29;20037;-78
2023/01/02 18:09:58;;;;;;;5.53;5.03;;;8.40;99.90;;;;;;4803555;29;20051;-77
2023/01/02 18:12:25;;;;;;;6.10;4.72;;;8.40;99.90;;;;;;4803663;29;20050;-78
2023/01/02 18:14:52;;;;;;;4.47;4.05;;;8.40;99.90;;;;;;4824503;29;20436;-78
2023/01/02 18:17:22;;;;;;;8.05;4.82;;;8.30;99.90;;;;;;4805434;29;20045;-77
2023/01/02 18:19:50;;;;;;;4.15;3.33;;;8.30;99.90;;;;;;4788534;29;20083;-78
2023/01/02 18:22:17;;;;;;;15.38;6.40;;;8.40;99.90;;;;;;4819290;29;20362;-78
2023/01/02 18:24:46;;;;;;;6.63;5.47;;;8.50;99.90;;;;;;4825594;29;20053;-78
2023/01/02 18:27:12;;;;;;;4.55;4.15;;;8.50;99.90;;;;;;4823550;29;20080;-78
2023/01/02 18:29:39;;;;;;;4.43;4.05;;;8.50;99.90;;;;;;4803496;29;20039;-77
2023/01/02 18:32:16;;;;;;;5.20;3.90;;;8.50;99.90;;;;;;4802692;29;20019;-78
2023/01/02 18:34:43;;;;;;;3.35;3.05;;;8.50;99.90;;;;;;4817878;29;20069;-78
2023/01/02 18:37:27;;;;;;;2.22;2.13;;;8.50;99.90;;;;;;4787345;29;20037;-78
2023/01/02 18:39:54;;;;;;;2.95;2.60;;;8.50;99.90;;;;;;4799935;29;20023;-78
2023/01/02 18:42:25;;;;;;;7.97;3.53;;;8.40;99.90;;;;;;4815831;29;20382;-78
2023/01/02 18:44:53;;;;;;;3.22;3.03;;;8.40;99.90;;;;;;4818935;29;20027;-78
2023/01/02 18:47:31;;;;;;;4.40;3.78;;;8.50;99.90;;;;;;4818942;29;20038;-78
2023/01/02 18:50:13;;;;;;;4.75;3.97;;;8.50;99.90;;;;;;4787769;29;20035;-78
2023/01/02 18:52:43;;;;;;;4.28;3.83;;;8.50;99.90;;;;;;4813871;29;20444;-78
2023/01/02 18:55:11;;;;;;;3.85;3.55;;;8.50;99.90;;;;;;4802326;29;20030;-78
2023/01/02 18:58:00;;;;;;;4.43;4.05;;;8.50;99.90;;;;;;4788102;29;20881;-79
2023/01/02 19:00:29;;;;;;;4.90;3.55;;;8.50;99.90;;;;;;4818212;29;20038;-78
2023/01/02 19:02:58;;;;;;;8.60;6.43;;;8.60;99.90;;;;;;4818768;29;20042;-78
2023/01/02 19:05:26;;;;;;;7.68;4.50;;;8.50;99.90;;;;;;4801851;29;20117;-78
2023/01/02 19:08:06;;;;;;;5.32;4.60;;;8.40;99.90;;;;;;4801179;30;20397;-78
2023/01/02 19:10:43;;;;;;;5.60;4.25;;;8.30;99.90;;;;;;4812593;29;20074;-77
2023/01/02 19:13:16;;;;;;;6.07;4.35;;;8.30;99.90;;;;;;4801946;29;20096;-78
2023/01/02 19:15:43;;;;;;;8.07;5.38;;;8.40;99.90;;;;;;4818091;29;20035;-78
2023/01/02 19:18:12;;;;;;;6.18;5.57;;;8.40;99.90;;;;;;4801743;29;20039;-78
2023/01/02 19:20:38;;;;;;;8.35;4.00;;;8.40;99.90;;;;;;4802025;29;20504;-78